WMSA/SZB METAR and TAF weather

Enter ICAO airport designator
Station Type Date Time Source
WMSA METAR 2019/12/07 17:00 UTC NOAA

WMSA 071700Z VRB03KT 8000 -RA FEW017CB 25/24 Q1012


Station Type Date Time Source
WMSA Decoded METAR 2019/12/07 17:00 UTC NOAA

Subang/Sultan Abdul Aziz Shah Airport, Malaysia (WMSA) 03-07N 101-32E
Dec 07, 2019 - 12:00 PM EST / 2019.12.07 1700 UTC
Wind: Variable at 3 MPH (3 KT):0
Visibility: 4 mile(s):0
Sky conditions: mostly clear
Weather: light rain; Cumulonimbus clouds observed
Temperature: 77 F (25 C)
Dew Point: 75 F (24 C)
Relative Humidity: 94%
Pressure (altimeter): 29.88 in. Hg (1012 hPa)
ob: WMSA 071700Z VRB03KT 8000 -RA FEW017CB 25/24 Q1012
cycle: 17

Station Type Date Time Source
WMSA TAF 2019/12/07 18:09 UTC NOAA

TAF WMSA 071700Z 0718/0818 VRB03KT 9999 FEW017CB
TEMPO 0809/0813 4000 TSRA FEW008 FEW016CB SCT018

Example: see airport list